sensor_id;sensor_type;location;lat;lon;timestamp;pressure;altitude;pressure_sealevel;temperature;humidity
7670;BME280;3877;42.562;27.636;2022-09-09T00:00:58;101907.00;;;19.58;100.00
7670;BME280;3877;42.562;27.636;2022-09-09T00:03:34;101903.06;;;19.63;100.00
7670;BME280;3877;42.562;27.636;2022-09-09T00:06:12;101907.25;;;19.65;100.00
7670;BME280;3877;42.562;27.636;2022-09-09T00:08:51;101912.44;;;19.63;100.00
7670;BME280;3877;42.562;27.636;2022-09-09T00:11:26;101851.41;;;19.24;100.00
7670;BME280;3877;42.562;27.636;2022-09-09T00:13:57;101895.84;;;19.41;100.00
7670;BME280;3877;42.562;27.636;2022-09-09T00:16:28;101911.53;;;19.47;100.00
7670;BME280;3877;42.562;27.636;2022-09-09T00:19:03;101900.22;;;19.39;100.00
7670;BME280;3877;42.562;27.636;2022-09-09T00:21:35;101897.25;;;19.35;100.00
7670;BME280;3877;42.562;27.636;2022-09-09T00:24:10;101904.72;;;19.40;100.00
7670;BME280;3877;42.562;27.636;2022-09-09T00:26:42;101889.09;;;19.34;100.00
7670;BME280;3877;42.562;27.636;2022-09-09T00:29:19;101903.44;;;19.49;100.00
7670;BME280;3877;42.562;27.636;2022-09-09T00:31:50;101904.63;;;19.48;100.00
7670;BME280;3877;42.562;27.636;2022-09-09T00:34:23;101900.59;;;19.49;100.00
7670;BME280;3877;42.562;27.636;2022-09-09T00:36:55;101871.69;;;19.23;100.00
7670;BME280;3877;42.562;27.636;2022-09-09T00:39:37;101900.84;;;19.44;100.00
7670;BME280;3877;42.562;27.636;2022-09-09T00:42:14;101855.22;;;19.16;100.00
7670;BME280;3877;42.562;27.636;2022-09-09T00:44:52;101858.19;;;19.08;100.00
7670;BME280;3877;42.562;27.636;2022-09-09T00:47:38;101900.47;;;19.34;100.00
7670;BME280;3877;42.562;27.636;2022-09-09T00:50:17;101911.69;;;19.30;100.00
7670;BME280;3877;42.562;27.636;2022-09-09T00:52:58;101908.41;;;19.28;100.00
7670;BME280;3877;42.562;27.636;2022-09-09T00:55:35;101902.69;;;19.16;100.00
7670;BME280;3877;42.562;27.636;2022-09-09T00:58:07;101905.19;;;19.17;100.00
7670;BME280;3877;42.562;27.636;2022-09-09T01:00:42;101904.84;;;19.19;100.00
7670;BME280;3877;42.562;27.636;2022-09-09T01:03:22;101901.28;;;19.10;100.00
7670;BME280;3877;42.562;27.636;2022-09-09T01:06:12;101897.25;;;19.11;100.00
7670;BME280;3877;42.562;27.636;2022-09-09T01:08:54;101907.66;;;19.07;100.00
7670;BME280;3877;42.562;27.636;2022-09-09T01:11:28;101903.63;;;19.08;100.00
7670;BME280;3877;42.562;27.636;2022-09-09T01:14:03;101914.06;;;19.04;100.00
7670;BME280;3877;42.562;27.636;2022-09-09T01:16:37;101918.91;;;19.03;100.00
7670;BME280;3877;42.562;27.636;2022-09-09T01:19:08;101884.19;;;18.86;100.00
7670;BME280;3877;42.562;27.636;2022-09-09T01:21:42;101916.41;;;19.02;100.00
7670;BME280;3877;42.562;27.636;2022-09-09T01:24:22;101915.44;;;18.98;100.00
7670;BME280;3877;42.562;27.636;2022-09-09T01:26:56;101923.50;;;18.96;100.00
7670;BME280;3877;42.562;27.636;2022-09-09T01:29:26;101891.28;;;18.79;100.00
7670;BME280;3877;42.562;27.636;2022-09-09T01:31:55;101899.69;;;18.88;100.00
7670;BME280;3877;42.562;27.636;2022-09-09T01:34:25;101911.16;;;18.92;100.00
7670;BME280;3877;42.562;27.636;2022-09-09T01:36:57;101907.75;;;18.86;100.00
7670;BME280;3877;42.562;27.636;2022-09-09T01:39:26;101892.00;;;18.76;100.00
7670;BME280;3877;42.562;27.636;2022-09-09T01:41:56;101909.28;;;18.84;100.00
7670;BME280;3877;42.562;27.636;2022-09-09T01:44:24;101909.28;;;18.84;100.00
7670;BME280;3877;42.562;27.636;2022-09-09T01:46:52;101917.31;;;18.82;100.00
7670;BME280;3877;42.562;27.636;2022-09-09T01:49:20;101919.78;;;18.83;100.00
7670;BME280;3877;42.562;27.636;2022-09-09T01:51:49;101909.16;;;18.80;100.00
7670;BME280;3877;42.562;27.636;2022-09-09T01:54:18;101913.66;;;18.81;100.00
7670;BME280;3877;42.562;27.636;2022-09-09T01:56:52;101922.84;;;18.78;100.00
7670;BME280;3877;42.562;27.636;2022-09-09T01:59:41;101921.56;;;18.75;100.00
7670;BME280;3877;42.562;27.636;2022-09-09T02:02:14;101867.22;;;18.44;100.00
7670;BME280;3877;42.562;27.636;2022-09-09T02:04:46;101919.28;;;18.69;100.00
7670;BME280;3877;42.562;27.636;2022-09-09T02:07:22;101923.78;;;18.70;100.00
7670;BME280;3877;42.562;27.636;2022-09-09T02:10:00;101912.66;;;18.65;100.00
7670;BME280;3877;42.562;27.636;2022-09-09T02:12:30;101875.28;;;18.42;100.00
7670;BME280;3877;42.562;27.636;2022-09-09T02:15:10;101895.63;;;18.44;100.00
7670;BME280;3877;42.562;27.636;2022-09-09T02:17:41;101925.28;;;18.55;100.00
7670;BME280;3877;42.562;27.636;2022-09-09T02:20:12;101926.22;;;18.59;100.00
7670;BME280;3877;42.562;27.636;2022-09-09T02:22:43;101931.44;;;18.57;100.00
7670;BME280;3877;42.562;27.636;2022-09-09T02:25:13;101930.22;;;18.58;100.00
7670;BME280;3877;42.562;27.636;2022-09-09T02:27:43;101921.94;;;18.53;100.00
7670;BME280;3877;42.562;27.636;2022-09-09T02:30:14;101918.47;;;18.48;100.00
7670;BME280;3877;42.562;27.636;2022-09-09T02:32:42;101916.94;;;18.50;100.00
7670;BME280;3877;42.562;27.636;2022-09-09T02:35:14;101917.66;;;18.47;100.00
7670;BME280;3877;42.562;27.636;2022-09-09T02:37:42;101925.66;;;18.45;100.00
7670;BME280;3877;42.562;27.636;2022-09-09T02:40:13;101919.16;;;18.45;100.00
7670;BME280;3877;42.562;27.636;2022-09-09T02:42:44;101911.69;;;18.40;100.00
7670;BME280;3877;42.562;27.636;2022-09-09T02:45:15;101902.84;;;18.42;100.00
7670;BME280;3877;42.562;27.636;2022-09-09T02:47:48;101911.69;;;18.40;100.00
7670;BME280;3877;42.562;27.636;2022-09-09T02:50:22;101905.34;;;18.43;100.00
7670;BME280;3877;42.562;27.636;2022-09-09T02:52:59;101921.88;;;18.41;100.00
7670;BME280;3877;42.562;27.636;2022-09-09T02:55:37;101913.00;;;18.43;100.00
7670;BME280;3877;42.562;27.636;2022-09-09T02:58:08;101895.09;;;18.30;100.00
7670;BME280;3877;42.562;27.636;2022-09-09T03:00:39;101916.69;;;18.43;100.00
7670;BME280;3877;42.562;27.636;2022-09-09T03:03:07;101909.06;;;18.35;100.00
7670;BME280;3877;42.562;27.636;2022-09-09T03:05:36;101926.38;;;18.42;100.00
7670;BME280;3877;42.562;27.636;2022-09-09T03:08:04;101926.38;;;18.42;100.00
7670;BME280;3877;42.562;27.636;2022-09-09T03:10:32;101928.16;;;18.47;100.00
7670;BME280;3877;42.562;27.636;2022-09-09T03:13:00;101925.00;;;18.48;100.00
7670;BME280;3877;42.562;27.636;2022-09-09T03:15:27;101904.09;;;18.32;100.00
7670;BME280;3877;42.562;27.636;2022-09-09T03:17:59;101924.44;;;18.34;100.00
7670;BME280;3877;42.562;27.636;2022-09-09T03:20:28;101923.47;;;18.30;100.00
7670;BME280;3877;42.562;27.636;2022-09-09T03:22:56;101931.63;;;18.31;100.00
7670;BME280;3877;42.562;27.636;2022-09-09T03:25:24;101920.06;;;18.16;100.00
7670;BME280;3877;42.562;27.636;2022-09-09T03:27:52;101927.22;;;18.22;100.00
7670;BME280;3877;42.562;27.636;2022-09-09T03:30:20;101934.13;;;18.12;100.00
7670;BME280;3877;42.562;27.636;2022-09-09T03:32:48;101934.00;;;18.09;100.00
7670;BME280;3877;42.562;27.636;2022-09-09T03:35:17;101927.19;;;18.01;100.00
7670;BME280;3877;42.562;27.636;2022-09-09T03:37:45;101933.88;;;18.05;100.00
7670;BME280;3877;42.562;27.636;2022-09-09T03:40:13;101931.03;;;18.05;100.00
7670;BME280;3877;42.562;27.636;2022-09-09T03:42:40;101929.56;;;17.99;100.00
7670;BME280;3877;42.562;27.636;2022-09-09T03:45:09;101937.56;;;17.97;100.00
7670;BME280;3877;42.562;27.636;2022-09-09T03:47:37;101921.97;;;17.91;100.00
7670;BME280;3877;42.562;27.636;2022-09-09T03:50:05;101944.50;;;18.08;100.00
7670;BME280;3877;42.562;27.636;2022-09-09T03:52:36;101937.16;;;18.07;100.00
7670;BME280;3877;42.562;27.636;2022-09-09T03:55:04;101937.31;;;18.11;100.00
7670;BME280;3877;42.562;27.636;2022-09-09T03:57:33;101931.78;;;18.14;100.00
7670;BME280;3877;42.562;27.636;2022-09-09T04:00:02;101935.78;;;18.13;100.00
7670;BME280;3877;42.562;27.636;2022-09-09T04:02:30;101927.38;;;18.05;100.00
7670;BME280;3877;42.562;27.636;2022-09-09T04:04:58;101942.09;;;18.19;100.00
7670;BME280;3877;42.562;27.636;2022-09-09T04:07:26;101937.06;;;18.24;100.00
7670;BME280;3877;42.562;27.636;2022-09-09T04:09:55;101934.34;;;18.28;100.00
7670;BME280;3877;42.562;27.636;2022-09-09T04:12:23;101927.75;;;18.36;100.00
7670;BME280;3877;42.562;27.636;2022-09-09T04:14:50;101919.16;;;18.45;100.00
7670;BME280;3877;42.562;27.636;2022-09-09T04:17:17;101934.28;;;18.57;100.00
7670;BME280;3877;42.562;27.636;2022-09-09T04:19:45;101931.38;;;18.78;100.00
7670;BME280;3877;42.562;27.636;2022-09-09T04:22:12;101922.53;;;18.92;100.00
7670;BME280;3877;42.562;27.636;2022-09-09T04:24:39;101929.19;;;19.08;100.00
7670;BME280;3877;42.562;27.636;2022-09-09T04:27:08;101926.84;;;19.34;100.00
7670;BME280;3877;42.562;27.636;2022-09-09T04:29:36;101933.03;;;19.85;100.00
7670;BME280;3877;42.562;27.636;2022-09-09T04:32:03;101941.03;;;20.31;100.00
7670;BME280;3877;42.562;27.636;2022-09-09T04:34:31;101933.81;;;20.77;100.00
7670;BME280;3877;42.562;27.636;2022-09-09T04:36:58;101935.16;;;21.11;100.00
7670;BME280;3877;42.562;27.636;2022-09-09T04:39:26;101927.31;;;21.52;100.00
7670;BME280;3877;42.562;27.636;2022-09-09T04:41:53;101923.59;;;22.37;100.00
7670;BME280;3877;42.562;27.636;2022-09-09T04:44:22;101912.31;;;23.73;100.00
7670;BME280;3877;42.562;27.636;2022-09-09T04:46:50;101904.25;;;25.05;100.00
7670;BME280;3877;42.562;27.636;2022-09-09T04:49:17;101906.34;;;26.14;100.00
7670;BME280;3877;42.562;27.636;2022-09-09T04:51:44;101884.13;;;26.94;100.00
7670;BME280;3877;42.562;27.636;2022-09-09T04:54:12;101883.38;;;27.50;100.00
7670;BME280;3877;42.562;27.636;2022-09-09T04:56:39;101888.19;;;28.13;100.00
7670;BME280;3877;42.562;27.636;2022-09-09T04:59:08;101883.06;;;28.60;100.00
7670;BME280;3877;42.562;27.636;2022-09-09T05:01:36;101859.84;;;28.85;100.00
7670;BME280;3877;42.562;27.636;2022-09-09T05:04:04;101887.72;;;29.09;100.00
7670;BME280;3877;42.562;27.636;2022-09-09T05:06:31;101876.75;;;29.45;100.00
7670;BME280;3877;42.562;27.636;2022-09-09T05:08:58;101886.69;;;29.37;100.00
7670;BME280;3877;42.562;27.636;2022-09-09T05:11:27;101876.31;;;28.91;100.00
7670;BME280;3877;42.562;27.636;2022-09-09T05:13:55;101878.94;;;28.64;100.00
7670;BME280;3877;42.562;27.636;2022-09-09T05:16:23;101855.13;;;28.43;100.00
7670;BME280;3877;42.562;27.636;2022-09-09T05:18:52;101884.63;;;28.82;100.00
7670;BME280;3877;42.562;27.636;2022-09-09T05:21:20;101882.16;;;28.77;100.00
7670;BME280;3877;42.562;27.636;2022-09-09T05:23:48;101870.22;;;28.79;100.00
7670;BME280;3877;42.562;27.636;2022-09-09T05:26:19;101859.91;;;28.78;100.00
7670;BME280;3877;42.562;27.636;2022-09-09T05:28:47;101859.13;;;28.66;100.00
7670;BME280;3877;42.562;27.636;2022-09-09T05:31:16;101858.34;;;28.59;100.00
7670;BME280;3877;42.562;27.636;2022-09-09T05:33:44;101854.38;;;28.32;100.00
7670;BME280;3877;42.562;27.636;2022-09-09T05:36:15;101850.38;;;27.90;100.00
7670;BME280;3877;42.562;27.636;2022-09-09T05:38:43;101802.78;;;27.22;100.00
7670;BME280;3877;42.562;27.636;2022-09-09T05:41:11;101851.25;;;27.09;100.00
7670;BME280;3877;42.562;27.636;2022-09-09T05:43:41;101866.03;;;26.97;100.00
7670;BME280;3877;42.562;27.636;2022-09-09T05:46:12;101858.56;;;26.61;100.00
7670;BME280;3877;42.562;27.636;2022-09-09T05:48:40;101868.25;;;26.24;100.00
7670;BME280;3877;42.562;27.636;2022-09-09T05:51:10;101865.59;;;25.87;100.00
7670;BME280;3877;42.562;27.636;2022-09-09T05:53:40;101875.25;;;25.61;100.00
7670;BME280;3877;42.562;27.636;2022-09-09T05:56:09;101887.38;;;25.41;100.00
7670;BME280;3877;42.562;27.636;2022-09-09T05:58:37;101883.84;;;25.14;100.00
7670;BME280;3877;42.562;27.636;2022-09-09T06:01:07;101840.75;;;24.66;100.00
7670;BME280;3877;42.562;27.636;2022-09-09T06:03:36;101874.06;;;24.81;100.00
7670;BME280;3877;42.562;27.636;2022-09-09T06:06:05;101873.50;;;24.65;100.00
7670;BME280;3877;42.562;27.636;2022-09-09T06:08:34;101878.63;;;24.49;100.00
7670;BME280;3877;42.562;27.636;2022-09-09T06:11:05;101884.09;;;24.28;100.00
7670;BME280;3877;42.562;27.636;2022-09-09T06:13:32;101877.09;;;24.25;100.00
7670;BME280;3877;42.562;27.636;2022-09-09T06:16:01;101886.88;;;24.21;100.00
7670;BME280;3877;42.562;27.636;2022-09-09T06:18:28;101897.38;;;24.13;100.00
7670;BME280;3877;42.562;27.636;2022-09-09T06:20:57;101891.03;;;24.01;100.00
7670;BME280;3877;42.562;27.636;2022-09-09T06:23:26;101893.81;;;23.93;100.00
7670;BME280;3877;42.562;27.636;2022-09-09T06:26:01;101889.97;;;23.82;100.00
7670;BME280;3877;42.562;27.636;2022-09-09T06:28:32;101889.31;;;23.66;100.00
7670;BME280;3877;42.562;27.636;2022-09-09T06:31:00;101902.69;;;23.59;100.00
7670;BME280;3877;42.562;27.636;2022-09-09T06:33:31;101901.53;;;23.63;100.00
7670;BME280;3877;42.562;27.636;2022-09-09T06:36:01;101900.31;;;23.64;100.00
7670;BME280;3877;42.562;27.636;2022-09-09T06:38:29;101900.78;;;23.66;100.00
7670;BME280;3877;42.562;27.636;2022-09-09T06:40:57;101902.72;;;23.62;100.00
7670;BME280;3877;42.562;27.636;2022-09-09T06:43:26;101859.88;;;23.43;100.00
7670;BME280;3877;42.562;27.636;2022-09-09T06:45:56;101911.81;;;23.68;100.00
7670;BME280;3877;42.562;27.636;2022-09-09T06:48:24;101924.38;;;23.60;100.00
7670;BME280;3877;42.562;27.636;2022-09-09T06:51:00;101903.97;;;23.61;100.00
7670;BME280;3877;42.562;27.636;2022-09-09T06:53:28;101920.34;;;23.64;100.00
7670;BME280;3877;42.562;27.636;2022-09-09T06:55:55;101904.63;;;23.51;100.00
7670;BME280;3877;42.562;27.636;2022-09-09T06:58:23;101923.75;;;23.73;100.00
7670;BME280;3877;42.562;27.636;2022-09-09T07:00:50;101933.97;;;23.71;100.00
7670;BME280;3877;42.562;27.636;2022-09-09T07:03:18;101927.81;;;23.72;100.00
7670;BME280;3877;42.562;27.636;2022-09-09T07:05:54;101936.13;;;23.81;100.00
7670;BME280;3877;42.562;27.636;2022-09-09T07:08:22;101888.00;;;23.60;100.00
7670;BME280;3877;42.562;27.636;2022-09-09T07:10:50;101938.84;;;23.96;100.00
7670;BME280;3877;42.562;27.636;2022-09-09T07:13:19;101942.19;;;24.02;100.00
7670;BME280;3877;42.562;27.636;2022-09-09T07:15:50;101942.06;;;23.95;100.00
7670;BME280;3877;42.562;27.636;2022-09-09T07:18:19;101808.88;;;23.19;100.00
7670;BME280;3877;42.562;27.636;2022-09-09T07:20:53;101929.81;;;23.94;100.00
7670;BME280;3877;42.562;27.636;2022-09-09T07:23:21;101914.28;;;23.95;100.00
7670;BME280;3877;42.562;27.636;2022-09-09T07:25:48;101937.88;;;24.15;100.00
7670;BME280;3877;42.562;27.636;2022-09-09T07:28:16;101938.94;;;24.30;100.00
7670;BME280;3877;42.562;27.636;2022-09-09T07:30:52;101933.84;;;24.46;100.00
7670;BME280;3877;42.562;27.636;2022-09-09T07:33:21;101924.97;;;24.58;100.00
7670;BME280;3877;42.562;27.636;2022-09-09T07:35:48;101922.59;;;24.64;100.00
7670;BME280;3877;42.562;27.636;2022-09-09T07:38:16;101935.75;;;24.68;100.00
7670;BME280;3877;42.562;27.636;2022-09-09T07:40:43;101922.28;;;24.72;100.00
7670;BME280;3877;42.562;27.636;2022-09-09T07:43:10;101920.38;;;24.83;100.00
7670;BME280;3877;42.562;27.636;2022-09-09T07:45:38;101914.63;;;24.83;100.00
7670;BME280;3877;42.562;27.636;2022-09-09T07:48:06;101909.44;;;24.93;100.00
7670;BME280;3877;42.562;27.636;2022-09-09T07:50:35;101910.75;;;24.99;100.00
7670;BME280;3877;42.562;27.636;2022-09-09T07:53:02;101915.41;;;24.80;100.00
7670;BME280;3877;42.562;27.636;2022-09-09T07:55:31;101913.56;;;24.95;100.00
7670;BME280;3877;42.562;27.636;2022-09-09T07:57:58;101911.66;;;25.10;100.00
7670;BME280;3877;42.562;27.636;2022-09-09T08:00:25;101922.72;;;25.08;100.00
7670;BME280;3877;42.562;27.636;2022-09-09T08:02:53;101922.41;;;25.20;100.00
7670;BME280;3877;42.562;27.636;2022-09-09T08:05:21;101921.63;;;25.23;100.00
7670;BME280;3877;42.562;27.636;2022-09-09T08:07:50;101917.13;;;25.22;100.00
7670;BME280;3877;42.562;27.636;2022-09-09T08:10:17;101914.38;;;25.36;100.00
7670;BME280;3877;42.562;27.636;2022-09-09T08:12:45;101916.81;;;25.34;100.00
7670;BME280;3877;42.562;27.636;2022-09-09T08:15:12;101916.94;;;25.48;100.00
7670;BME280;3877;42.562;27.636;2022-09-09T08:17:40;101903.03;;;25.50;100.00
7670;BME280;3877;42.562;27.636;2022-09-09T08:20:07;101885.81;;;25.50;100.00
7670;BME280;3877;42.562;27.636;2022-09-09T08:22:35;101886.78;;;25.68;100.00
7670;BME280;3877;42.562;27.636;2022-09-09T08:25:05;101900.75;;;25.74;100.00
7670;BME280;3877;42.562;27.636;2022-09-09T08:27:34;101888.47;;;25.77;100.00
7670;BME280;3877;42.562;27.636;2022-09-09T08:30:03;101891.69;;;25.64;100.00
7670;BME280;3877;42.562;27.636;2022-09-09T08:32:30;101884.41;;;25.81;100.00
7670;BME280;3877;42.562;27.636;2022-09-09T08:34:58;101881.22;;;25.93;100.00
7670;BME280;3877;42.562;27.636;2022-09-09T08:37:25;101866.50;;;26.02;100.00
7670;BME280;3877;42.562;27.636;2022-09-09T08:39:52;101872.34;;;26.23;100.00
7670;BME280;3877;42.562;27.636;2022-09-09T08:42:38;101869.13;;;26.32;100.00
7670;BME280;3877;42.562;27.636;2022-09-09T08:45:25;101875.75;;;26.46;100.00
7670;BME280;3877;42.562;27.636;2022-09-09T08:48:08;101861.69;;;26.24;100.00
7670;BME280;3877;42.562;27.636;2022-09-09T08:50:40;101874.09;;;26.45;100.00
7670;BME280;3877;42.562;27.636;2022-09-09T08:53:14;101874.53;;;26.54;100.00
7670;BME280;3877;42.562;27.636;2022-09-09T08:55:45;101873.31;;;26.55;100.00
7670;BME280;3877;42.562;27.636;2022-09-09T08:58:18;101829.75;;;26.39;100.00
7670;BME280;3877;42.562;27.636;2022-09-09T09:01:02;101857.31;;;26.62;100.00
7670;BME280;3877;42.562;27.636;2022-09-09T09:03:43;101852.81;;;26.68;100.00
7670;BME280;3877;42.562;27.636;2022-09-09T09:06:23;101819.50;;;26.52;100.00
7670;BME280;3877;42.562;27.636;2022-09-09T09:09:00;101849.53;;;26.66;100.00
7670;BME280;3877;42.562;27.636;2022-09-09T09:11:35;101862.56;;;26.31;100.00
7670;BME280;3877;42.562;27.636;2022-09-09T09:14:10;101851.84;;;26.25;100.00
7670;BME280;3877;42.562;27.636;2022-09-09T09:16:48;101839.56;;;26.31;100.00
7670;BME280;3877;42.562;27.636;2022-09-09T09:19:18;101839.56;;;26.35;100.00
7670;BME280;3877;42.562;27.636;2022-09-09T09:21:51;101851.91;;;26.42;100.00
7670;BME280;3877;42.562;27.636;2022-09-09T09:24:25;101840.41;;;26.42;100.00
7670;BME280;3877;42.562;27.636;2022-09-09T09:26:54;101843.72;;;26.41;100.00
7670;BME280;3877;42.562;27.636;2022-09-09T09:29:24;101856.22;;;26.04;100.00
7670;BME280;3877;42.562;27.636;2022-09-09T09:31:55;101812.25;;;25.83;100.00
7670;BME280;3877;42.562;27.636;2022-09-09T09:34:23;101852.16;;;26.09;100.00
7670;BME280;3877;42.562;27.636;2022-09-09T09:36:53;101847.22;;;26.06;100.00
7670;BME280;3877;42.562;27.636;2022-09-09T09:39:23;101809.88;;;25.99;100.00
7670;BME280;3877;42.562;27.636;2022-09-09T09:41:52;101852.19;;;26.12;100.00
7670;BME280;3877;42.562;27.636;2022-09-09T09:44:25;101850.16;;;26.17;100.00
7670;BME280;3877;42.562;27.636;2022-09-09T09:47:04;101854.22;;;26.08;100.00
7670;BME280;3877;42.562;27.636;2022-09-09T09:49:31;101848.88;;;26.14;100.00
7670;BME280;3877;42.562;27.636;2022-09-09T09:52:00;101833.00;;;26.27;100.00
7670;BME280;3877;42.562;27.636;2022-09-09T09:54:29;101833.00;;;26.27;100.00
7670;BME280;3877;42.562;27.636;2022-09-09T09:57:08;101715.03;;;25.81;100.00
7670;BME280;3877;42.562;27.636;2022-09-09T09:59:38;101826.13;;;26.71;100.00
7670;BME280;3877;42.562;27.636;2022-09-09T10:02:13;101833.94;;;26.74;100.00
7670;BME280;3877;42.562;27.636;2022-09-09T10:04:41;101792.84;;;26.63;100.00
7670;BME280;3877;42.562;27.636;2022-09-09T10:07:11;101826.19;;;26.92;100.00
7670;BME280;3877;42.562;27.636;2022-09-09T10:09:39;101815.50;;;26.99;100.00
7670;BME280;3877;42.562;27.636;2022-09-09T10:12:18;101823.31;;;26.92;100.00
7670;BME280;3877;42.562;27.636;2022-09-09T10:14:57;101815.47;;;26.85;100.00
7670;BME280;3877;42.562;27.636;2022-09-09T10:17:36;101804.41;;;26.91;100.00
7670;BME280;3877;42.562;27.636;2022-09-09T10:20:19;101759.56;;;26.62;100.00
7670;BME280;3877;42.562;27.636;2022-09-09T10:22:52;101806.47;;;26.87;100.00
7670;BME280;3877;42.562;27.636;2022-09-09T10:25:37;101801.97;;;26.93;100.00
7670;BME280;3877;42.562;27.636;2022-09-09T10:28:29;101805.22;;;26.95;100.00
7670;BME280;3877;42.562;27.636;2022-09-09T10:31:11;101802.75;;;27.04;100.00
7670;BME280;3877;42.562;27.636;2022-09-09T10:33:49;101801.97;;;27.07;100.00
7670;BME280;3877;42.562;27.636;2022-09-09T10:36:20;101798.66;;;27.12;100.00
7670;BME280;3877;42.562;27.636;2022-09-09T10:38:52;101797.84;;;27.22;100.00
7670;BME280;3877;42.562;27.636;2022-09-09T10:41:30;101794.53;;;27.31;100.00
7670;BME280;3877;42.562;27.636;2022-09-09T10:44:12;101793.31;;;27.28;100.00
7670;BME280;3877;42.562;27.636;2022-09-09T10:46:57;101777.28;;;27.31;100.00
7670;BME280;3877;42.562;27.636;2022-09-09T10:49:43;101785.94;;;27.27;100.00
7670;BME280;3877;42.562;27.636;2022-09-09T10:52:21;101781.38;;;27.30;100.00
7670;BME280;3877;42.562;27.636;2022-09-09T10:54:57;101784.66;;;27.39;100.00
7670;BME280;3877;42.562;27.636;2022-09-09T10:57:31;101787.16;;;27.37;100.00
7670;BME280;3877;42.562;27.636;2022-09-09T11:00:04;101762.47;;;27.18;100.00
7670;BME280;3877;42.562;27.636;2022-09-09T11:02:34;101763.72;;;27.31;100.00
7670;BME280;3877;42.562;27.636;2022-09-09T11:05:05;101783.41;;;27.58;100.00
7670;BME280;3877;42.562;27.636;2022-09-09T11:07:39;101786.28;;;27.61;100.00
7670;BME280;3877;42.562;27.636;2022-09-09T11:10:18;101773.47;;;27.83;100.00
7670;BME280;3877;42.562;27.636;2022-09-09T11:12:52;101791.63;;;27.63;100.00
7670;BME280;3877;42.562;27.636;2022-09-09T11:15:28;101789.59;;;27.53;100.00
7670;BME280;3877;42.562;27.636;2022-09-09T11:18:01;101791.19;;;27.75;100.00
7670;BME280;3877;42.562;27.636;2022-09-09T11:20:32;101782.16;;;27.73;100.00
7670;BME280;3877;42.562;27.636;2022-09-09T11:23:02;101777.22;;;27.70;100.00
7670;BME280;3877;42.562;27.636;2022-09-09T11:25:34;101750.47;;;27.66;100.00
7670;BME280;3877;42.562;27.636;2022-09-09T11:28:29;101768.97;;;27.75;100.00
7670;BME280;3877;42.562;27.636;2022-09-09T11:31:16;101764.03;;;27.76;100.00
7670;BME280;3877;42.562;27.636;2022-09-09T11:34:09;101753.25;;;27.98;100.00
7670;BME280;3877;42.562;27.636;2022-09-09T11:36:59;101751.66;;;27.82;100.00
7670;BME280;3877;42.562;27.636;2022-09-09T11:39:49;101746.25;;;27.95;100.00
7670;BME280;3877;42.562;27.636;2022-09-09T11:42:22;101744.19;;;27.96;100.00
7670;BME280;3877;42.562;27.636;2022-09-09T11:44:50;101744.19;;;27.96;100.00
7670;BME280;3877;42.562;27.636;2022-09-09T11:47:24;101731.06;;;27.91;100.00
7670;BME280;3877;42.562;27.636;2022-09-09T11:50:08;101729.41;;;27.90;100.00
7670;BME280;3877;42.562;27.636;2022-09-09T11:52:39;101733.56;;;27.89;100.00
7670;BME280;3877;42.562;27.636;2022-09-09T11:55:12;101718.72;;;27.91;100.00
7670;BME280;3877;42.562;27.636;2022-09-09T11:57:57;101730.22;;;27.94;100.00
7670;BME280;3877;42.562;27.636;2022-09-09T12:00:34;101730.97;;;28.05;100.00
7670;BME280;3877;42.562;27.636;2022-09-09T12:03:03;101728.91;;;28.09;100.00
7670;BME280;3877;42.562;27.636;2022-09-09T12:05:41;101730.22;;;27.98;100.00
7670;BME280;3877;42.562;27.636;2022-09-09T12:08:15;101721.13;;;28.03;100.00
7670;BME280;3877;42.562;27.636;2022-09-09T12:10:53;101719.56;;;27.80;100.00
7670;BME280;3877;42.562;27.636;2022-09-09T12:13:23;101709.00;;;27.53;100.00
7670;BME280;3877;42.562;27.636;2022-09-09T12:15:52;101716.41;;;27.43;100.00
7670;BME280;3877;42.562;27.636;2022-09-09T12:18:23;101706.13;;;27.38;100.00
7670;BME280;3877;42.562;27.636;2022-09-09T12:20:59;101708.59;;;27.43;100.00
7670;BME280;3877;42.562;27.636;2022-09-09T12:23:38;101704.91;;;27.47;100.00
7670;BME280;3877;42.562;27.636;2022-09-09T12:26:20;101705.28;;;27.63;100.00
7670;BME280;3877;42.562;27.636;2022-09-09T12:28:58;101701.59;;;27.52;100.00
7670;BME280;3877;42.562;27.636;2022-09-09T12:31:35;101671.25;;;27.26;100.00
7670;BME280;3877;42.562;27.636;2022-09-09T12:34:11;101699.97;;;27.54;100.00
7670;BME280;3877;42.562;27.636;2022-09-09T12:36:42;101700.81;;;27.40;100.00
7670;BME280;3877;42.562;27.636;2022-09-09T12:39:16;101686.47;;;27.26;100.00
7670;BME280;3877;42.562;27.636;2022-09-09T12:41:51;101689.34;;;27.26;100.00
7670;BME280;3877;42.562;27.636;2022-09-09T12:44:23;101596.56;;;26.83;100.00
7670;BME280;3877;42.562;27.636;2022-09-09T12:46:51;101692.53;;;27.64;100.00
7670;BME280;3877;42.562;27.636;2022-09-09T12:49:29;101562.50;;;26.75;100.00
7670;BME280;3877;42.562;27.636;2022-09-09T12:52:03;101684.34;;;27.37;100.00
7670;BME280;3877;42.562;27.636;2022-09-09T12:54:32;101684.78;;;27.32;100.00
7670;BME280;3877;42.562;27.636;2022-09-09T12:57:00;101680.22;;;27.42;100.00
7670;BME280;3877;42.562;27.636;2022-09-09T12:59:35;101681.03;;;27.42;100.00
7670;BME280;3877;42.562;27.636;2022-09-09T13:02:16;101654.81;;;27.19;100.00
7670;BME280;3877;42.562;27.636;2022-09-09T13:04:45;101675.34;;;27.28;100.00
7670;BME280;3877;42.562;27.636;2022-09-09T13:07:15;101677.41;;;27.24;100.00
7670;BME280;3877;42.562;27.636;2022-09-09T13:09:42;101663.81;;;27.28;100.00
7670;BME280;3877;42.562;27.636;2022-09-09T13:12:13;101658.94;;;27.22;100.00
7670;BME280;3877;42.562;27.636;2022-09-09T13:14:44;101659.72;;;27.29;100.00